PWSweather.com
Personal Weather Stations
Station Observations
KMAMEDFI2
Medfield, MA 02052

Medfield, MA 02052

Lat: 42.1900822, Lon: -71.3296889

Elevation: 138

Station Type: Rainwise WS MK-III

http://www.medfieldweather.com

Latest ConditionsUpdated 9:00:00 AM EDT Friday, Mar 27, 2015
Currently Today's Max Today's Min Today's Average
Temperature 38.4°F3.6°C 43.1°F6.2°C 38.1°F3.4°C 40.0°F4.4°C
Dew Point 37.4°F3.0°C 42.0°F5.6°C 37.1°F2.8°C 38.9°F3.8°C
Winds 2.8 mph NE4.5 kmh NE 3.0 mph NNE4.8 kmh NNE - 1.2 mph 1.9 kmh
Wind Gusts 2.8 mph4.5 kmh 8.4 mph13.5 kmh - -
Humidity 96% 96% 96% 96%
Pressure 29.64 in1003.7 mb 29.66 in1004.4 mb 29.57 in1001.4 mb -
Precipitation - 0.22 in5.6 mm - -
Hour Temp Dew Point Humidity Winds Wind Gusts Pressure Precip Precip Rate Daily Precip Total
09:00 AM 38.4°F3.6°C 37.4°F3.0°C 96% 2.8 mph NE4.5 kmh NE 2.8 mph4.5 kmh 29.64 in1003.7 mb - 0.01 in0.3 mm 0.22 in5.6 mm
08:50 AM 38.3°F3.5°C 37.3°F2.9°C 96% 0.1 mph ESE0.2 kmh ESE 1.4 mph2.3 kmh 29.65 in1004.1 mb - 0.00 in0.0 mm 0.21 in5.3 mm
08:40 AM 38.3°F3.5°C 37.3°F2.9°C 96% 0.4 mph W0.6 kmh W -- 29.66 in1004.4 mb - 0.00 in0.0 mm 0.21 in5.3 mm
08:30 AM 38.3°F3.5°C 37.3°F2.9°C 96% Calm Calm 1.4 mph2.3 kmh 29.65 in1004.1 mb - 0.00 in0.0 mm 0.21 in5.3 mm
08:20 AM 38.3°F3.5°C 37.3°F2.9°C 96% 1.6 mph NW2.6 kmh NW 2.8 mph4.5 kmh 29.66 in1004.4 mb - 0.01 in0.3 mm 0.21 in5.3 mm
08:10 AM 38.3°F3.5°C 37.3°F2.9°C 96% 2.8 mph WNW4.5 kmh WNW 2.8 mph4.5 kmh 29.65 in1004.1 mb - 0.00 in0.0 mm 0.20 in5.1 mm
08:00 AM 38.2°F3.4°C 37.2°F2.9°C 96% 0.4 mph SSE0.6 kmh SSE 1.4 mph2.3 kmh 29.65 in1004.1 mb - 0.00 in0.0 mm 0.20 in5.1 mm
07:50 AM 38.3°F3.5°C 37.3°F2.9°C 96% 1.0 mph NW1.6 kmh NW 2.8 mph4.5 kmh 29.65 in1004.1 mb - 0.01 in0.3 mm 0.20 in5.1 mm
07:40 AM 38.1°F3.4°C 37.1°F2.8°C 96% 1.8 mph WNW2.9 kmh WNW 2.8 mph4.5 kmh 29.65 in1004.1 mb - 0.00 in0.0 mm 0.19 in4.8 mm
07:30 AM 38.1°F3.4°C 37.1°F2.8°C 96% Calm Calm -- 29.65 in1004.1 mb - 0.01 in0.3 mm 0.19 in4.8 mm
07:20 AM 38.1°F3.4°C 37.1°F2.8°C 96% Calm Calm -- 29.65 in1004.1 mb - 0.00 in0.0 mm 0.18 in4.6 mm
07:10 AM 38.3°F3.5°C 37.3°F2.9°C 96% Calm Calm -- 29.65 in1004.1 mb - 0.01 in0.3 mm 0.18 in4.6 mm
07:00 AM 38.2°F3.4°C 37.2°F2.9°C 96% 1.1 mph WSW1.8 kmh WSW 4.2 mph6.8 kmh 29.63 in1003.4 mb - 0.01 in0.3 mm 0.17 in4.3 mm
06:50 AM 38.2°F3.4°C 37.2°F2.9°C 96% 2.2 mph NW3.5 kmh NW 5.6 mph9.0 kmh 29.64 in1003.7 mb - 0.01 in0.3 mm 0.16 in4.1 mm
06:40 AM 38.3°F3.5°C 37.3°F2.9°C 96% 0.2 mph SW0.3 kmh SW 1.4 mph2.3 kmh 29.63 in1003.4 mb - 0.01 in0.3 mm 0.15 in3.8 mm
06:30 AM 38.5°F3.6°C 37.5°F3.1°C 96% 1.2 mph W1.9 kmh W 2.8 mph4.5 kmh 29.63 in1003.4 mb - 0.01 in0.3 mm 0.14 in3.6 mm
06:20 AM 38.6°F3.7°C 37.5°F3.1°C 96% 0.8 mph ENE1.3 kmh ENE 2.8 mph4.5 kmh 29.61 in1002.7 mb - 0.01 in0.3 mm 0.14 in3.6 mm
06:10 AM 38.7°F3.7°C 37.7°F3.2°C 96% 1.1 mph WSW1.8 kmh WSW 2.8 mph4.5 kmh 29.60 in1002.4 mb - 0.00 in0.0 mm 0.13 in3.3 mm
06:00 AM 38.7°F3.7°C 37.7°F3.2°C 96% 1.5 mph WSW2.4 kmh WSW 2.8 mph4.5 kmh 29.59 in1002.0 mb - 0.01 in0.3 mm 0.13 in3.3 mm
05:50 AM 38.9°F3.8°C 37.9°F3.3°C 96% 2.7 mph N4.3 kmh N 4.2 mph6.8 kmh 29.59 in1002.0 mb - 0.00 in0.0 mm 0.12 in3.0 mm
05:40 AM 39.2°F4.0°C 38.1°F3.4°C 96% 2.2 mph NE3.5 kmh NE 5.6 mph9.0 kmh 29.60 in1002.4 mb - 0.01 in0.3 mm 0.12 in3.0 mm
05:30 AM 39.2°F4.0°C 38.2°F3.4°C 96% 1.6 mph WNW2.6 kmh WNW 4.2 mph6.8 kmh 29.59 in1002.0 mb - 0.00 in0.0 mm 0.11 in2.8 mm
05:20 AM 39.3°F4.1°C 38.3°F3.5°C 96% 3.0 mph NW4.8 kmh NW 2.8 mph4.5 kmh 29.59 in1002.0 mb - 0.01 in0.3 mm 0.11 in2.8 mm
05:10 AM 39.2°F4.0°C 38.2°F3.4°C 96% 1.7 mph SE2.7 kmh SE 4.2 mph6.8 kmh 29.58 in1001.7 mb - 0.02 in0.5 mm 0.10 in2.5 mm
05:00 AM 39.5°F4.2°C 38.5°F3.6°C 96% 2.4 mph NNW3.9 kmh NNW 4.2 mph6.8 kmh 29.59 in1002.0 mb - 0.01 in0.3 mm 0.08 in2.0 mm
04:50 AM 39.6°F4.2°C 38.6°F3.7°C 96% 1.5 mph WSW2.4 kmh WSW 1.4 mph2.3 kmh 29.60 in1002.4 mb - 0.01 in0.3 mm 0.07 in1.8 mm
04:40 AM 39.7°F4.3°C 38.7°F3.7°C 96% 1.7 mph NW2.7 kmh NW 4.2 mph6.8 kmh 29.59 in1002.0 mb - 0.01 in0.3 mm 0.06 in1.5 mm
04:30 AM 39.9°F4.4°C 38.8°F3.8°C 96% 1.7 mph NNW2.7 kmh NNW 2.8 mph4.5 kmh 29.59 in1002.0 mb - 0.01 in0.3 mm 0.06 in1.5 mm
04:20 AM 40.1°F4.5°C 39.1°F3.9°C 96% 0.2 mph SW0.3 kmh SW 2.8 mph4.5 kmh 29.59 in1002.0 mb - 0.00 in0.0 mm 0.05 in1.3 mm
04:10 AM 40.3°F4.6°C 39.3°F4.1°C 96% 1.9 mph SW3.1 kmh SW 2.8 mph4.5 kmh 29.59 in1002.0 mb - 0.00 in0.0 mm 0.05 in1.3 mm
04:00 AM 40.4°F4.7°C 39.4°F4.1°C 96% 1.0 mph WNW1.6 kmh WNW 2.8 mph4.5 kmh 29.57 in1001.4 mb - 0.00 in0.0 mm 0.05 in1.3 mm
03:50 AM 40.5°F4.7°C 39.4°F4.1°C 96% 2.4 mph E3.9 kmh E 2.8 mph4.5 kmh 29.57 in1001.4 mb - 0.00 in0.0 mm 0.05 in1.3 mm
03:40 AM 40.5°F4.7°C 39.4°F4.1°C 96% 1.6 mph NNW2.6 kmh NNW 8.4 mph13.5 kmh 29.57 in1001.4 mb - 0.00 in0.0 mm 0.05 in1.3 mm
03:30 AM 40.5°F4.7°C 39.4°F4.1°C 96% 1.1 mph WNW1.8 kmh WNW 2.8 mph4.5 kmh 29.57 in1001.4 mb - 0.01 in0.3 mm 0.05 in1.3 mm
03:20 AM 40.8°F4.9°C 39.7°F4.3°C 96% 2.5 mph WNW4.0 kmh WNW 2.8 mph4.5 kmh 29.57 in1001.4 mb - 0.01 in0.3 mm 0.04 in1.0 mm
03:10 AM 40.8°F4.9°C 39.7°F4.3°C 96% 1.1 mph NE1.8 kmh NE 2.8 mph4.5 kmh 29.57 in1001.4 mb - 0.02 in0.5 mm 0.04 in1.0 mm
03:00 AM 40.6°F4.8°C 39.6°F4.2°C 96% Calm Calm 1.4 mph2.3 kmh 29.57 in1001.4 mb - 0.00 in0.0 mm 0.02 in0.5 mm
02:50 AM 40.9°F4.9°C 39.8°F4.3°C 96% Calm Calm -- 29.58 in1001.7 mb - 0.00 in0.0 mm 0.02 in0.5 mm
02:40 AM 40.9°F4.9°C 39.8°F4.3°C 96% 0.9 mph W1.4 kmh W 4.2 mph6.8 kmh 29.57 in1001.4 mb - 0.01 in0.3 mm 0.02 in0.5 mm
02:30 AM 41.1°F5.1°C 40.0°F4.4°C 96% 0.4 mph NNW0.6 kmh NNW -- 29.57 in1001.4 mb - 0.00 in0.0 mm 0.01 in0.3 mm
02:20 AM 41.1°F5.1°C 40.1°F4.5°C 96% 0.1 mph NNE0.2 kmh NNE -- 29.57 in1001.4 mb - 0.00 in0.0 mm 0.01 in0.3 mm
02:10 AM 41.1°F5.1°C 40.0°F4.4°C 96% 0.4 mph E0.6 kmh E 4.2 mph6.8 kmh 29.57 in1001.4 mb - 0.01 in0.3 mm 0.01 in0.3 mm
02:00 AM 41.7°F5.4°C 40.6°F4.8°C 96% 1.9 mph S3.1 kmh S 2.8 mph4.5 kmh 29.58 in1001.7 mb - 0.00 in0.0 mm 0.00 in0.0 mm
01:50 AM 41.6°F5.3°C 40.5°F4.7°C 96% 1.7 mph NW2.7 kmh NW 2.8 mph4.5 kmh 29.57 in1001.4 mb - 0.00 in0.0 mm 0.00 in0.0 mm
01:40 AM 41.4°F5.2°C 40.3°F4.6°C 96% 0.5 mph SE0.8 kmh SE 2.8 mph4.5 kmh 29.57 in1001.4 mb - 0.00 in0.0 mm 0.00 in0.0 mm
01:30 AM 41.8°F5.4°C 40.7°F4.8°C 96% 2.1 mph WNW3.4 kmh WNW 4.2 mph6.8 kmh 29.59 in1002.0 mb - 0.00 in0.0 mm 0.00 in0.0 mm
01:20 AM 41.9°F5.5°C 40.8°F4.9°C 96% 3.0 mph NNE4.8 kmh NNE 4.2 mph6.8 kmh 29.59 in1002.0 mb - 0.00 in0.0 mm 0.00 in0.0 mm
01:10 AM 41.8°F5.4°C 40.7°F4.8°C 96% 0.2 mph ENE0.3 kmh ENE 1.4 mph2.3 kmh 29.57 in1001.4 mb - 0.00 in0.0 mm 0.00 in0.0 mm
01:00 AM 41.6°F5.3°C 40.6°F4.8°C 96% Calm Calm 1.4 mph2.3 kmh 29.57 in1001.4 mb - 0.00 in0.0 mm 0.00 in0.0 mm
12:50 AM 41.9°F5.5°C 40.9°F4.9°C 96% Calm Calm -- 29.57 in1001.4 mb - 0.00 in0.0 mm 0.00 in0.0 mm
12:40 AM 42.5°F5.8°C 41.5°F5.3°C 96% 0.4 mph NW0.6 kmh NW -- 29.57 in1001.4 mb - 0.00 in0.0 mm 0.00 in0.0 mm
12:30 AM 42.4°F5.8°C 41.3°F5.2°C 96% 1.2 mph NW1.9 kmh NW 2.8 mph4.5 kmh 29.57 in1001.4 mb - 0.00 in0.0 mm 0.00 in0.0 mm
12:20 AM 42.6°F5.9°C 41.5°F5.3°C 96% 2.3 mph NNW3.7 kmh NNW 2.8 mph4.5 kmh 29.57 in1001.4 mb - 0.00 in0.0 mm 0.00 in0.0 mm
12:10 AM 42.8°F6.0°C 41.7°F5.4°C 96% 1.9 mph SW3.1 kmh SW 2.8 mph4.5 kmh 29.57 in1001.4 mb - 0.00 in0.0 mm 0.00 in0.0 mm
12:00 AM 43.1°F6.2°C 42.0°F5.6°C 96% 2.0 mph E3.2 kmh E 2.8 mph4.5 kmh 29.57 in1001.4 mb - 0.00 in0.0 mm 0.00 in0.0 mm